createdAt,value
2024-02-02T00:01:32.047Z,5.40
2024-02-02T00:06:33.955Z,5.40
2024-02-02T00:11:35.983Z,5.40
2024-02-02T00:16:37.784Z,5.40
2024-02-02T00:21:39.577Z,5.30
2024-02-02T00:26:41.347Z,5.30
2024-02-02T00:31:43.272Z,5.30
2024-02-02T00:36:45.623Z,5.20
2024-02-02T00:41:47.581Z,5.30
2024-02-02T00:46:49.343Z,5.20
2024-02-02T00:51:52.056Z,5.30
2024-02-02T00:56:54.066Z,5.20
2024-02-02T01:01:55.961Z,5.30
2024-02-02T01:06:57.862Z,5.50
2024-02-02T01:11:59.925Z,5.40
2024-02-02T01:17:01.902Z,5.40
2024-02-02T01:22:03.956Z,5.40
2024-02-02T01:27:05.786Z,5.40
2024-02-02T01:32:07.771Z,5.50
2024-02-02T01:37:09.575Z,5.50
2024-02-02T01:42:11.464Z,5.50
2024-02-02T01:47:13.409Z,5.50
2024-02-02T01:52:15.254Z,5.50
2024-02-02T01:57:17.264Z,5.50
2024-02-02T02:02:19.109Z,5.50
2024-02-02T02:07:21.044Z,5.50
2024-02-02T02:12:23.730Z,5.50
2024-02-02T02:17:25.564Z,5.50
2024-02-02T02:22:27.383Z,5.50
2024-02-02T02:27:29.253Z,5.50
2024-02-02T02:32:31.294Z,5.50
2024-02-02T02:37:33.245Z,5.50
2024-02-02T02:42:35.078Z,5.50
2024-02-02T02:47:37.067Z,5.40
2024-02-02T02:52:39.195Z,5.50
2024-02-02T02:57:41.056Z,5.40
2024-02-02T03:02:42.862Z,5.40
2024-02-02T03:07:44.592Z,5.40
2024-02-02T03:12:46.453Z,5.40
2024-02-02T03:17:49.292Z,5.40
2024-02-02T03:22:51.400Z,5.30
2024-02-02T03:27:53.432Z,5.40
2024-02-02T03:32:55.605Z,5.30
2024-02-02T03:37:57.676Z,5.30
2024-02-02T03:42:59.600Z,5.30
2024-02-02T03:48:01.706Z,5.20
2024-02-02T03:53:03.753Z,5.10
2024-02-02T03:58:05.512Z,5.00
2024-02-02T04:03:07.890Z,4.90
2024-02-02T04:08:09.839Z,4.90
2024-02-02T04:13:11.664Z,4.90
2024-02-02T04:18:13.537Z,5.00
2024-02-02T04:23:17.170Z,5.10
2024-02-02T04:28:19.058Z,5.10
2024-02-02T04:33:21.057Z,5.10
2024-02-02T04:38:22.987Z,5.10
2024-02-02T04:43:24.813Z,5.20
2024-02-02T04:48:26.831Z,5.20
2024-02-02T04:53:28.701Z,5.30
2024-02-02T04:58:31.242Z,5.30
2024-02-02T05:03:33.328Z,5.50
2024-02-02T05:08:35.459Z,5.40
2024-02-02T05:13:37.494Z,5.40
2024-02-02T05:18:39.431Z,5.40
2024-02-02T05:23:47.173Z,5.50
2024-02-02T05:28:51.577Z,5.50
2024-02-02T05:33:53.446Z,5.50
2024-02-02T05:38:55.285Z,5.50
2024-02-02T05:43:57.111Z,5.50
2024-02-02T05:48:59.077Z,5.50
2024-02-02T05:54:00.942Z,5.60
2024-02-02T05:59:03.145Z,5.60
2024-02-02T06:04:05.260Z,5.60
2024-02-02T06:09:07.088Z,5.60
2024-02-02T06:14:08.855Z,5.50
2024-02-02T06:19:10.789Z,5.50
2024-02-02T06:24:12.710Z,5.50
2024-02-02T06:29:14.550Z,5.60
2024-02-02T06:34:16.455Z,5.60
2024-02-02T06:39:20.883Z,5.60
2024-02-02T06:44:22.767Z,5.60
2024-02-02T06:49:24.612Z,5.60
2024-02-02T06:54:26.525Z,5.70
2024-02-02T06:59:28.362Z,5.70
2024-02-02T07:04:30.229Z,5.70
2024-02-02T07:09:33.269Z,5.70
2024-02-02T07:14:51.399Z,5.80
2024-02-02T07:19:54.422Z,5.90
2024-02-02T07:24:56.391Z,5.90
2024-02-02T07:29:58.156Z,6.00
2024-02-02T07:35:00.220Z,6.00
2024-02-02T07:40:24.327Z,6.00
2024-02-02T07:45:26.220Z,6.10
2024-02-02T07:50:28.050Z,6.10
2024-02-02T07:55:29.776Z,6.10
2024-02-02T08:00:32.010Z,6.20
2024-02-02T08:05:38.362Z,6.30
2024-02-02T08:10:45.223Z,6.40
2024-02-02T08:15:47.064Z,6.50
2024-02-02T08:20:49.036Z,6.60
2024-02-02T08:25:50.829Z,6.70
2024-02-02T08:30:52.663Z,6.60
2024-02-02T08:35:54.753Z,6.60
2024-02-02T08:40:56.721Z,6.60
2024-02-02T08:45:58.440Z,6.70
2024-02-02T08:51:01.162Z,6.90
2024-02-02T08:56:03.535Z,6.80
2024-02-02T09:01:06.568Z,6.70
2024-02-02T09:06:22.827Z,6.70
2024-02-02T09:11:25.119Z,6.90
2024-02-02T09:16:44.946Z,6.90
2024-02-02T09:21:46.968Z,6.90
2024-02-02T09:26:48.745Z,7.00
2024-02-02T09:31:50.574Z,6.90
2024-02-02T09:36:54.540Z,7.10
2024-02-02T09:42:05.867Z,7.20
2024-02-02T09:47:20.601Z,7.30
2024-02-02T09:52:49.645Z,7.50
2024-02-02T09:58:00.443Z,7.50
2024-02-02T10:03:20.818Z,7.40
2024-02-02T10:08:53.600Z,7.40
2024-02-02T10:14:33.003Z,7.50
2024-02-02T10:19:49.647Z,7.60
2024-02-02T10:25:16.537Z,7.90
2024-02-02T10:30:39.715Z,8.30
2024-02-02T10:36:02.567Z,8.30
2024-02-02T10:41:19.502Z,8.20
2024-02-02T10:46:46.385Z,8.30
2024-02-02T10:51:56.539Z,8.10
2024-02-02T10:57:27.936Z,8.20
2024-02-02T11:02:35.888Z,8.40
2024-02-02T11:07:47.659Z,8.70
2024-02-02T11:13:15.292Z,8.70
2024-02-02T11:18:36.211Z,8.70
2024-02-02T11:23:55.214Z,8.70
2024-02-02T11:29:12.042Z,8.70
2024-02-02T11:34:34.357Z,8.80
2024-02-02T11:39:52.232Z,8.90
2024-02-02T11:45:00.913Z,9.10
2024-02-02T11:50:07.683Z,9.10
2024-02-02T11:55:30.915Z,9.00
2024-02-02T12:01:01.538Z,8.90
2024-02-02T12:06:17.213Z,9.00
2024-02-02T12:11:29.396Z,8.90
2024-02-02T12:16:35.391Z,9.00
2024-02-02T12:21:37.358Z,9.10
2024-02-02T12:26:39.704Z,9.00
2024-02-02T12:31:44.324Z,9.00
2024-02-02T12:36:46.170Z,8.90
2024-02-02T12:41:51.512Z,8.90
2024-02-02T12:46:53.816Z,8.90
2024-02-02T12:51:57.647Z,8.90
2024-02-02T12:56:59.684Z,8.90
2024-02-02T13:02:01.723Z,9.00
2024-02-02T13:07:04.044Z,9.00
2024-02-02T13:12:08.296Z,9.10
2024-02-02T13:17:13.206Z,9.00
2024-02-02T13:22:23.300Z,9.10
2024-02-02T13:27:36.381Z,9.20
2024-02-02T13:32:39.602Z,9.30
2024-02-02T13:37:45.227Z,9.40
2024-02-02T13:42:48.387Z,9.40
2024-02-02T13:47:57.343Z,9.60
2024-02-02T13:52:59.374Z,9.60
2024-02-02T13:58:01.965Z,9.60
2024-02-02T14:03:11.500Z,9.60
2024-02-02T14:08:15.410Z,9.60
2024-02-02T14:13:19.927Z,9.60
2024-02-02T14:18:22.207Z,9.70
2024-02-02T14:23:24.288Z,9.70
2024-02-02T14:28:26.199Z,9.80
2024-02-02T14:33:28.408Z,9.70
2024-02-02T14:38:30.293Z,9.60
2024-02-02T14:43:32.051Z,9.60
2024-02-02T14:48:34.354Z,9.60
2024-02-02T14:53:36.175Z,9.50
2024-02-02T14:58:38.219Z,9.50
2024-02-02T15:03:40.640Z,9.50
2024-02-02T15:08:43.189Z,9.40
2024-02-02T15:13:44.978Z,9.30
2024-02-02T15:18:47.822Z,9.30
2024-02-02T15:23:50.262Z,9.20
2024-02-02T15:28:52.105Z,9.10
2024-02-02T15:33:53.966Z,9.00
2024-02-02T15:39:09.636Z,9.00
2024-02-02T15:44:17.708Z,8.90
2024-02-02T15:49:19.752Z,8.90
2024-02-02T15:54:22.956Z,8.90
2024-02-02T15:59:24.863Z,8.90
2024-02-02T16:04:26.626Z,8.90
2024-02-02T16:09:28.404Z,8.90
2024-02-02T16:14:30.238Z,8.90
2024-02-02T16:19:32.158Z,8.80
2024-02-02T16:24:35.512Z,8.80
2024-02-02T16:29:37.619Z,8.80
2024-02-02T16:34:39.538Z,8.80
2024-02-02T16:39:41.436Z,8.70
2024-02-02T16:44:43.239Z,8.80
2024-02-02T16:49:47.748Z,8.80
2024-02-02T16:54:49.661Z,8.80
2024-02-02T16:59:51.457Z,8.80
2024-02-02T17:04:53.218Z,8.90
2024-02-02T17:09:55.126Z,8.80
2024-02-02T17:14:57.439Z,8.80
2024-02-02T17:19:59.742Z,8.80
2024-02-02T17:25:01.692Z,8.80
2024-02-02T17:30:03.959Z,8.70
2024-02-02T17:35:07.524Z,8.60
2024-02-02T17:40:09.799Z,8.50
2024-02-02T17:45:11.695Z,8.50
2024-02-02T17:50:13.719Z,8.40
2024-02-02T17:55:15.832Z,8.30
2024-02-02T18:00:18.040Z,8.20
2024-02-02T18:05:19.888Z,8.10
2024-02-02T18:10:21.733Z,8.00
2024-02-02T18:15:23.633Z,7.90
2024-02-02T18:20:25.500Z,7.90
2024-02-02T18:25:27.342Z,8.00
2024-02-02T18:30:30.121Z,8.00
2024-02-02T18:35:31.963Z,8.20
2024-02-02T18:40:33.814Z,8.50
2024-02-02T18:45:35.622Z,8.70
2024-02-02T18:50:37.456Z,8.80
2024-02-02T18:55:39.356Z,8.90
2024-02-02T19:00:41.237Z,9.00
2024-02-02T19:05:43.252Z,9.00
2024-02-02T19:10:45.942Z,9.00
2024-02-02T19:15:47.843Z,9.10
2024-02-02T19:20:49.617Z,9.10
2024-02-02T19:25:51.474Z,9.00
2024-02-02T19:30:55.808Z,9.10
2024-02-02T19:35:57.579Z,9.10
2024-02-02T19:40:59.333Z,9.10
2024-02-02T19:46:01.095Z,9.10
2024-02-02T19:51:05.988Z,9.10
2024-02-02T19:56:08.336Z,9.10
2024-02-02T20:01:14.948Z,9.10
2024-02-02T20:06:18.315Z,9.00
2024-02-02T20:11:26.246Z,9.00
2024-02-02T20:16:28.160Z,9.00
2024-02-02T20:21:30.072Z,9.10
2024-02-02T20:26:31.943Z,9.10
2024-02-02T20:31:33.847Z,9.10
2024-02-02T20:36:35.683Z,9.10
2024-02-02T20:41:37.500Z,9.10
2024-02-02T20:46:39.336Z,9.10
2024-02-02T20:51:42.255Z,9.10
2024-02-02T20:56:44.046Z,9.10
2024-02-02T21:01:45.801Z,9.10
2024-02-02T21:06:47.741Z,9.10
2024-02-02T21:11:49.649Z,9.10
2024-02-02T21:16:51.449Z,9.10
2024-02-02T21:21:53.401Z,9.10
2024-02-02T21:26:55.289Z,9.10
2024-02-02T21:31:57.116Z,9.10
2024-02-02T21:36:58.864Z,9.10
2024-02-02T21:42:00.699Z,9.10
2024-02-02T21:47:03.851Z,9.10
2024-02-02T21:52:06.076Z,9.10
2024-02-02T21:57:08.312Z,9.20
2024-02-02T22:02:10.249Z,9.30
2024-02-02T22:07:12.045Z,9.40
2024-02-02T22:12:14.039Z,9.40
2024-02-02T22:17:16.260Z,9.30
2024-02-02T22:22:18.858Z,9.30
2024-02-02T22:27:23.488Z,9.30
2024-02-02T22:32:25.737Z,9.30
2024-02-02T22:37:27.846Z,9.20
2024-02-02T22:42:29.594Z,9.10
2024-02-02T22:47:31.374Z,9.10
2024-02-02T22:52:33.217Z,9.10
2024-02-02T22:57:35.051Z,9.10
2024-02-02T23:02:37.718Z,9.10
2024-02-02T23:07:39.532Z,9.10
2024-02-02T23:12:41.430Z,9.10
2024-02-02T23:17:43.307Z,9.10
2024-02-02T23:22:45.054Z,9.10
2024-02-02T23:27:47.042Z,9.10
2024-02-02T23:32:48.927Z,9.10
2024-02-02T23:37:50.764Z,9.10
2024-02-02T23:42:52.602Z,9.10
2024-02-02T23:47:54.377Z,9.00
2024-02-02T23:52:56.223Z,9.10
2024-02-02T23:57:58.042Z,9.10
